Time;durP1;ratioP1;P1;durP2;ratioP2;P2;SDS_P1;SDS_P2;PMS_P1;PMS_P2;Temp;Humidity;BMP_temperature;BMP_pressure;BME280_temperature;BME280_humidity;BME280_pressure;Samples;Min_cycle;Max_cycle;Signal;HPM_P1;HPM_P2
2023/05/27 00:01:14;;;;;;;0.13;0.13;;;10.70;99.90;;;;;;5015615;28;20621;-65
2023/05/27 00:03:39;;;;;;;0.20;0.20;;;10.70;99.90;;;;;;5014006;28;20045;-65
2023/05/27 00:06:05;;;;;;;0.30;0.30;;;10.70;99.90;;;;;;5003042;28;20161;-65
2023/05/27 00:08:31;;;;;;;0.00;0.00;;;10.70;99.90;;;;;;5022832;28;20033;-65
2023/05/27 00:10:57;;;;;;;0.00;0.00;;;10.70;99.90;;;;;;5008511;28;20091;-65
2023/05/27 00:13:22;;;;;;;0.65;0.43;;;10.60;99.90;;;;;;5001207;28;20041;-65
2023/05/27 00:15:48;;;;;;;0.30;0.30;;;10.60;99.90;;;;;;5010584;28;20600;-65
2023/05/27 00:18:13;;;;;;;4.53;2.75;;;10.60;99.90;;;;;;5010950;28;20057;-65
2023/05/27 00:20:39;;;;;;;1.45;1.00;;;10.60;99.90;;;;;;5005424;28;20038;-65
2023/05/27 00:23:05;;;;;;;0.28;0.28;;;10.60;99.90;;;;;;5010891;28;20507;-65
2023/05/27 00:25:31;;;;;;;0.25;0.25;;;10.60;99.90;;;;;;5012236;28;20050;-65
2023/05/27 00:27:57;;;;;;;0.05;0.05;;;10.60;99.90;;;;;;5009450;28;20506;-65
2023/05/27 00:30:22;;;;;;;0.93;0.60;;;10.60;99.90;;;;;;5003102;28;20140;-65
2023/05/27 00:32:48;;;;;;;0.10;0.10;;;10.50;99.90;;;;;;5012820;28;20030;-65
2023/05/27 00:35:14;;;;;;;1.27;0.50;;;10.50;99.90;;;;;;5013388;28;20077;-65
2023/05/27 00:37:41;;;;;;;1.05;1.05;;;10.50;99.90;;;;;;5008605;28;20108;-65
2023/05/27 00:40:10;;;;;;;1.50;0.47;;;10.40;99.90;;;;;;4999279;28;20046;-65
2023/05/27 00:42:36;;;;;;;1.00;0.98;;;10.50;99.90;;;;;;5005533;28;20116;-65
2023/05/27 00:45:03;;;;;;;0.15;0.15;;;10.40;99.90;;;;;;5002918;28;20184;-65
2023/05/27 00:47:32;;;;;;;1.65;1.13;;;10.40;99.90;;;;;;5003860;28;20056;-65
2023/05/27 00:49:57;;;;;;;0.00;0.00;;;10.40;99.90;;;;;;4999225;28;20049;-65
2023/05/27 00:52:24;;;;;;;0.10;0.10;;;10.40;99.90;;;;;;5004998;28;20042;-65
2023/05/27 00:54:51;;;;;;;0.10;0.10;;;10.40;99.90;;;;;;5010577;28;20042;-65
2023/05/27 00:57:17;;;;;;;0.05;0.05;;;10.30;99.90;;;;;;5000909;28;20057;-64
2023/05/27 00:59:43;;;;;;;0.10;0.10;;;10.30;99.90;;;;;;5005766;28;20042;-65
2023/05/27 01:02:08;;;;;;;0.17;0.17;;;10.30;99.90;;;;;;5006940;28;20120;-65
2023/05/27 01:04:34;;;;;;;0.40;0.40;;;10.30;99.90;;;;;;5038990;28;20501;-65
2023/05/27 01:07:33;;;;;;;0.10;0.10;;;10.40;99.90;;;;;;5007011;28;20068;-65
2023/05/27 01:10:15;;;;;;;0.30;0.30;;;10.30;99.90;;;;;;5002281;28;20042;-65
2023/05/27 01:12:50;;;;;;;0.10;0.10;;;10.30;99.90;;;;;;5008795;28;20397;-65
2023/05/27 01:15:17;;;;;;;0.28;0.13;;;10.30;99.90;;;;;;5006833;28;20053;-65
2023/05/27 01:17:46;;;;;;;0.13;0.13;;;10.20;99.90;;;;;;5000748;28;20042;-65
2023/05/27 01:20:14;;;;;;;0.05;0.05;;;10.20;99.90;;;;;;5006909;28;20046;-65
2023/05/27 01:22:42;;;;;;;0.57;0.57;;;10.10;99.90;;;;;;5014609;28;20049;-65
2023/05/27 01:25:09;;;;;;;0.10;0.10;;;10.00;99.90;;;;;;5004820;28;20080;-65
2023/05/27 01:27:34;;;;;;;0.45;0.45;;;10.00;99.90;;;;;;5018295;28;20912;-65
2023/05/27 01:30:01;;;;;;;0.00;0.00;;;10.00;99.90;;;;;;5024773;28;20172;-65
2023/05/27 01:32:40;;;;;;;0.10;0.10;;;10.00;99.90;;;;;;5018710;28;20390;-65
2023/05/27 01:35:26;;;;;;;0.35;0.35;;;10.00;99.90;;;;;;5027998;28;20608;-65
2023/05/27 01:37:55;;;;;;;0.00;0.00;;;10.00;99.90;;;;;;5011970;28;20041;-65
2023/05/27 01:40:21;;;;;;;0.08;0.08;;;10.00;99.90;;;;;;5007901;28;20664;-65
2023/05/27 01:42:48;;;;;;;0.00;0.00;;;10.00;99.90;;;;;;5000996;28;20100;-65
2023/05/27 01:45:14;;;;;;;0.20;0.20;;;10.10;99.90;;;;;;5006894;28;20057;-65
2023/05/27 01:47:42;;;;;;;0.00;0.00;;;10.00;99.90;;;;;;5013487;28;20422;-65
2023/05/27 01:50:08;;;;;;;0.30;0.30;;;10.00;99.90;;;;;;5026971;28;20041;-65
2023/05/27 01:52:33;;;;;;;2.28;1.13;;;10.00;99.90;;;;;;5000448;28;20046;-65
2023/05/27 01:54:59;;;;;;;0.10;0.10;;;10.00;99.90;;;;;;5008926;28;20509;-65
2023/05/27 01:57:25;;;;;;;0.52;0.52;;;10.00;99.90;;;;;;5008366;28;20446;-65
2023/05/27 01:59:51;;;;;;;0.10;0.10;;;10.00;99.90;;;;;;5008904;28;20037;-65
2023/05/27 02:02:16;;;;;;;0.10;0.10;;;9.90;99.90;;;;;;5031559;28;20393;-65
2023/05/27 02:04:42;;;;;;;0.38;0.38;;;9.90;99.90;;;;;;5009943;28;20045;-65
2023/05/27 02:07:07;;;;;;;0.10;0.10;;;9.90;99.90;;;;;;5002248;28;20044;-65
2023/05/27 02:09:33;;;;;;;0.20;0.20;;;9.90;99.90;;;;;;5004736;28;20477;-65
2023/05/27 02:11:58;;;;;;;0.22;0.22;;;9.90;99.90;;;;;;5000896;28;20042;-65
2023/05/27 02:14:24;;;;;;;0.00;0.00;;;9.80;99.90;;;;;;5005909;28;20056;-65
2023/05/27 02:16:50;;;;;;;0.20;0.20;;;9.80;99.90;;;;;;5003844;28;20487;-65
2023/05/27 02:19:17;;;;;;;0.85;0.45;;;9.90;99.90;;;;;;5040105;28;20049;-65
2023/05/27 02:21:42;;;;;;;0.20;0.20;;;9.90;99.90;;;;;;5002206;28;20044;-65
2023/05/27 02:24:08;;;;;;;0.10;0.10;;;9.90;99.90;;;;;;5017996;28;20125;-65
2023/05/27 02:26:34;;;;;;;0.22;0.22;;;9.90;99.90;;;;;;5009887;28;20049;-65
2023/05/27 02:28:59;;;;;;;0.10;0.10;;;9.80;99.90;;;;;;5009128;28;20057;-65
2023/05/27 02:31:25;;;;;;;2.63;0.95;;;9.90;99.90;;;;;;5004133;28;20046;-65
2023/05/27 02:33:51;;;;;;;0.10;0.10;;;9.80;99.90;;;;;;5001803;28;20042;-65
2023/05/27 02:36:16;;;;;;;0.10;0.10;;;9.80;99.90;;;;;;5002406;28;20053;-65
2023/05/27 02:38:44;;;;;;;0.08;0.08;;;9.80;99.90;;;;;;5007678;28;20045;-65
2023/05/27 02:41:09;;;;;;;0.20;0.20;;;9.80;99.90;;;;;;5008352;28;20038;-65
2023/05/27 02:43:35;;;;;;;0.10;0.10;;;9.80;99.90;;;;;;5006188;28;20421;-65
2023/05/27 02:46:01;;;;;;;0.10;0.10;;;9.80;99.90;;;;;;5005044;28;20453;-65
2023/05/27 02:48:26;;;;;;;0.73;0.73;;;9.80;99.90;;;;;;4999530;28;20041;-64
2023/05/27 02:50:52;;;;;;;0.10;0.10;;;9.80;99.90;;;;;;5001248;28;20120;-65
2023/05/27 02:53:17;;;;;;;0.00;0.00;;;9.80;99.90;;;;;;5001597;28;20050;-65
2023/05/27 02:55:43;;;;;;;3.55;0.52;;;9.80;99.90;;;;;;4997769;28;20041;-65
2023/05/27 02:58:08;;;;;;;0.00;0.00;;;9.80;99.90;;;;;;5034686;28;20088;-65
2023/05/27 03:00:34;;;;;;;0.00;0.00;;;9.70;99.90;;;;;;5002147;28;20173;-65
2023/05/27 03:03:00;;;;;;;1.55;1.45;;;9.60;99.90;;;;;;5002846;28;20049;-65
2023/05/27 03:05:26;;;;;;;1.00;0.80;;;9.60;99.90;;;;;;4998943;28;20038;-65
2023/05/27 03:07:51;;;;;;;0.10;0.10;;;9.60;99.90;;;;;;5006953;28;20034;-65
2023/05/27 03:10:17;;;;;;;0.20;0.20;;;9.60;99.90;;;;;;5000530;28;20058;-65
2023/05/27 03:12:43;;;;;;;0.45;0.45;;;9.70;99.90;;;;;;5005025;28;20052;-65
2023/05/27 03:15:09;;;;;;;0.00;0.00;;;9.60;99.90;;;;;;5006508;28;20038;-65
2023/05/27 03:17:38;;;;;;;0.32;0.30;;;9.60;99.90;;;;;;4996879;28;20045;-65
2023/05/27 03:20:06;;;;;;;0.13;0.13;;;9.60;99.90;;;;;;5002506;28;20489;-65
2023/05/27 03:22:32;;;;;;;0.63;0.63;;;9.70;99.90;;;;;;5008931;28;20363;-65
2023/05/27 03:24:57;;;;;;;0.38;0.38;;;9.60;99.90;;;;;;5016572;28;20056;-65
2023/05/27 03:27:23;;;;;;;0.45;0.45;;;9.60;99.90;;;;;;4998737;28;20058;-65
2023/05/27 03:29:49;;;;;;;0.10;0.10;;;9.50;99.90;;;;;;4998258;28;20130;-65
2023/05/27 03:32:14;;;;;;;0.10;0.10;;;9.50;99.90;;;;;;5007318;28;20049;-65
2023/05/27 03:34:40;;;;;;;0.43;0.43;;;9.50;99.90;;;;;;5002991;28;20048;-65
2023/05/27 03:37:06;;;;;;;0.30;0.30;;;9.60;99.90;;;;;;4998615;28;20089;-65
2023/05/27 03:39:31;;;;;;;0.40;0.40;;;9.50;99.90;;;;;;5009014;28;20045;-65
2023/05/27 03:41:57;;;;;;;1.17;1.08;;;9.50;99.90;;;;;;5007741;28;20623;-65
2023/05/27 03:44:23;;;;;;;0.10;0.10;;;9.50;99.90;;;;;;5006125;28;20038;-65
2023/05/27 03:46:49;;;;;;;0.10;0.10;;;9.50;99.90;;;;;;5006825;28;20037;-65
2023/05/27 03:49:15;;;;;;;0.00;0.00;;;9.60;99.90;;;;;;5003605;28;20478;-65
2023/05/27 03:51:41;;;;;;;0.00;0.00;;;9.60;99.90;;;;;;5007471;28;20071;-65
2023/05/27 03:54:07;;;;;;;0.10;0.10;;;9.50;99.90;;;;;;5001098;28;20041;-65
2023/05/27 03:56:32;;;;;;;0.40;0.40;;;9.60;99.90;;;;;;5001912;28;20046;-65
2023/05/27 03:58:58;;;;;;;0.10;0.10;;;9.60;99.90;;;;;;5006097;28;20067;-65
2023/05/27 04:01:24;;;;;;;0.10;0.10;;;9.60;99.90;;;;;;5000444;28;20046;-65
2023/05/27 04:03:50;;;;;;;0.10;0.10;;;9.60;99.90;;;;;;5013619;28;20113;-64
2023/05/27 04:06:15;;;;;;;0.10;0.10;;;9.60;99.90;;;;;;4999114;28;20516;-65
2023/05/27 04:08:41;;;;;;;0.90;0.90;;;9.60;99.90;;;;;;5009049;28;20045;-65
2023/05/27 04:11:12;;;;;;;0.00;0.00;;;9.60;99.90;;;;;;4997070;28;20077;-65
2023/05/27 04:13:38;;;;;;;0.45;0.45;;;9.60;99.90;;;;;;5007239;28;20109;-65
2023/05/27 04:16:03;;;;;;;0.65;0.65;;;9.70;99.90;;;;;;5004173;28;20057;-65
2023/05/27 04:18:29;;;;;;;1.08;0.75;;;9.60;99.90;;;;;;5005003;28;20034;-65
2023/05/27 04:20:55;;;;;;;0.10;0.10;;;9.70;99.90;;;;;;5001816;28;20042;-65
2023/05/27 04:23:21;;;;;;;0.10;0.10;;;9.70;99.90;;;;;;5012555;28;20065;-65
2023/05/27 04:25:48;;;;;;;0.52;0.52;;;9.70;99.90;;;;;;5006826;28;20064;-65
2023/05/27 04:28:15;;;;;;;3.83;0.73;;;9.70;99.90;;;;;;5006483;28;20113;-65
2023/05/27 04:30:41;;;;;;;0.10;0.10;;;9.70;99.90;;;;;;5005622;28;20523;-65
2023/05/27 04:33:11;;;;;;;0.10;0.10;;;9.70;99.90;;;;;;5011136;28;20034;-65
2023/05/27 04:35:36;;;;;;;0.10;0.10;;;9.70;99.90;;;;;;5008406;28;20050;-65
2023/05/27 04:38:02;;;;;;;0.60;0.60;;;9.80;99.90;;;;;;5000923;28;20100;-66
2023/05/27 04:40:28;;;;;;;0.10;0.10;;;9.80;99.90;;;;;;5005654;28;20042;-65
2023/05/27 04:42:55;;;;;;;0.70;0.70;;;9.80;99.90;;;;;;4995336;28;20046;-66
2023/05/27 04:45:21;;;;;;;0.77;0.77;;;9.90;99.90;;;;;;5010079;28;20054;-66
2023/05/27 04:47:47;;;;;;;0.20;0.20;;;9.80;99.90;;;;;;5003207;28;20089;-65
2023/05/27 04:50:13;;;;;;;0.05;0.05;;;9.90;99.90;;;;;;5001718;28;20042;-65
2023/05/27 04:52:41;;;;;;;0.15;0.15;;;9.90;99.90;;;;;;5022671;28;20045;-65
2023/05/27 04:55:08;;;;;;;1.67;0.93;;;10.00;99.90;;;;;;5004332;28;20124;-65
2023/05/27 04:57:35;;;;;;;0.08;0.08;;;10.10;99.90;;;;;;5011456;28;20125;-65
2023/05/27 05:02:39;;;;;;;0.28;0.28;;;10.20;99.90;;;;;;5023770;28;20486;-65
2023/05/27 05:05:08;;;;;;;4.75;1.40;;;10.30;99.90;;;;;;5008966;28;20046;-65
2023/05/27 05:07:37;;;;;;;0.10;0.10;;;10.40;99.90;;;;;;5010498;28;20121;-66
2023/05/27 05:10:05;;;;;;;0.00;0.00;;;10.40;99.90;;;;;;5001704;28;20081;-65
2023/05/27 05:12:30;;;;;;;0.57;0.57;;;10.40;99.90;;;;;;5010745;28;20057;-65
2023/05/27 05:14:56;;;;;;;0.20;0.20;;;10.40;99.90;;;;;;5009513;28;20042;-65
2023/05/27 05:17:24;;;;;;;0.00;0.00;;;10.50;99.90;;;;;;5000905;28;20072;-66
2023/05/27 05:19:51;;;;;;;0.38;0.38;;;10.60;99.90;;;;;;5006752;28;20383;-65
2023/05/27 05:22:18;;;;;;;0.10;0.10;;;10.70;99.90;;;;;;5007584;28;20762;-66
2023/05/27 05:24:47;;;;;;;1.17;0.90;;;10.80;99.90;;;;;;5003956;28;20050;-65
2023/05/27 05:27:12;;;;;;;0.10;0.10;;;10.80;99.90;;;;;;5008691;28;20111;-65
2023/05/27 05:29:38;;;;;;;0.10;0.10;;;10.90;99.90;;;;;;4999927;28;20583;-65
2023/05/27 05:32:05;;;;;;;2.47;2.28;;;11.00;99.90;;;;;;5004182;28;20054;-66
2023/05/27 05:34:31;;;;;;;0.10;0.10;;;11.00;99.90;;;;;;5025700;28;20041;-66
2023/05/27 05:36:56;;;;;;;0.25;0.20;;;11.00;99.90;;;;;;5030827;28;20046;-65
2023/05/27 05:39:22;;;;;;;0.00;0.00;;;11.10;99.90;;;;;;5010410;28;20543;-66
2023/05/27 05:41:48;;;;;;;0.10;0.10;;;11.10;99.90;;;;;;5003410;28;20049;-66
2023/05/27 05:44:15;;;;;;;0.40;0.40;;;11.20;99.90;;;;;;4998319;28;20044;-66
2023/05/27 05:46:40;;;;;;;0.10;0.10;;;11.30;99.90;;;;;;5000803;28;20486;-65
2023/05/27 05:49:06;;;;;;;0.38;0.38;;;11.30;99.90;;;;;;5004483;28;20048;-65
2023/05/27 05:51:32;;;;;;;0.03;0.03;;;11.30;99.90;;;;;;5007666;28;20041;-65
2023/05/27 05:53:58;;;;;;;0.52;0.52;;;11.50;99.90;;;;;;5003542;28;20037;-65
2023/05/27 05:56:25;;;;;;;0.00;0.00;;;11.50;99.90;;;;;;4998434;28;20045;-66
2023/05/27 05:58:51;;;;;;;0.40;0.40;;;11.50;99.90;;;;;;5006773;28;20366;-65
2023/05/27 06:01:17;;;;;;;0.43;0.43;;;11.60;99.90;;;;;;4998630;28;20397;-65
2023/05/27 06:03:43;;;;;;;0.10;0.10;;;11.50;99.90;;;;;;5001959;28;20084;-65
2023/05/27 06:06:09;;;;;;;0.20;0.20;;;11.50;99.90;;;;;;5009746;28;20053;-65
2023/05/27 06:08:34;;;;;;;0.00;0.00;;;11.60;99.90;;;;;;5007022;28;20121;-66
2023/05/27 06:11:00;;;;;;;0.95;0.73;;;11.70;99.90;;;;;;5029079;28;20104;-66
2023/05/27 06:13:25;;;;;;;0.20;0.20;;;11.70;99.90;;;;;;5003203;28;20065;-65
2023/05/27 06:15:51;;;;;;;0.10;0.10;;;11.70;99.90;;;;;;5009890;28;20053;-66
2023/05/27 06:18:17;;;;;;;0.28;0.28;;;11.80;99.90;;;;;;4997396;28;20038;-66
2023/05/27 06:20:42;;;;;;;1.77;0.93;;;11.80;99.90;;;;;;5001601;28;20042;-65
2023/05/27 06:23:08;;;;;;;0.08;0.08;;;11.70;99.90;;;;;;4996034;28;20065;-65
2023/05/27 06:25:33;;;;;;;0.10;0.10;;;11.80;99.90;;;;;;5000353;28;20060;-66
2023/05/27 06:27:59;;;;;;;4.72;1.83;;;11.80;99.90;;;;;;4999251;28;20062;-66
2023/05/27 06:30:25;;;;;;;0.00;0.00;;;11.80;99.90;;;;;;5001553;28;20412;-65
2023/05/27 06:32:51;;;;;;;0.05;0.05;;;11.80;99.90;;;;;;5001889;28;20049;-66
2023/05/27 06:35:17;;;;;;;0.55;0.55;;;11.90;99.90;;;;;;4994071;28;20041;-65
2023/05/27 06:37:43;;;;;;;0.52;0.52;;;12.00;99.90;;;;;;5003937;28;20095;-65
2023/05/27 06:40:10;;;;;;;5.93;3.30;;;12.10;99.90;;;;;;5005923;28;20109;-65
2023/05/27 06:42:36;;;;;;;0.17;0.17;;;12.10;99.90;;;;;;4995779;28;20088;-65
2023/05/27 06:45:02;;;;;;;0.00;0.00;;;12.10;99.90;;;;;;4996113;28;20394;-66
2023/05/27 06:47:28;;;;;;;1.63;1.48;;;12.20;99.90;;;;;;5001006;28;20057;-66
2023/05/27 06:49:54;;;;;;;0.10;0.10;;;12.40;99.90;;;;;;5002713;28;20144;-65
2023/05/27 06:52:19;;;;;;;0.77;0.75;;;12.40;99.90;;;;;;5007477;28;20087;-65
2023/05/27 06:54:46;;;;;;;0.08;0.08;;;12.50;99.90;;;;;;5004070;28;20118;-65
2023/05/27 06:57:12;;;;;;;0.38;0.38;;;12.50;99.90;;;;;;5007574;28;20046;-65
2023/05/27 06:59:38;;;;;;;0.35;0.35;;;12.60;99.90;;;;;;5008568;28;20049;-65
2023/05/27 07:02:03;;;;;;;0.60;0.30;;;12.80;99.90;;;;;;4997421;28;20046;-65
2023/05/27 07:04:29;;;;;;;0.00;0.00;;;12.90;99.90;;;;;;5002550;28;20081;-65
2023/05/27 07:06:54;;;;;;;1.42;0.93;;;12.90;99.90;;;;;;5004479;28;20401;-64
2023/05/27 07:09:20;;;;;;;0.10;0.10;;;12.90;99.90;;;;;;5001483;28;20069;-65
2023/05/27 07:11:46;;;;;;;1.38;1.08;;;12.90;99.90;;;;;;5008520;28;20084;-65
2023/05/27 07:14:12;;;;;;;0.00;0.00;;;12.90;99.90;;;;;;4999774;28;20124;-65
2023/05/27 07:16:37;;;;;;;0.00;0.00;;;12.90;99.90;;;;;;5005827;28;20513;-65
2023/05/27 07:19:03;;;;;;;0.10;0.10;;;12.90;99.90;;;;;;5009284;28;20038;-65
2023/05/27 07:21:28;;;;;;;0.10;0.10;;;13.00;99.90;;;;;;4993271;28;20382;-65
2023/05/27 07:23:54;;;;;;;0.00;0.00;;;13.00;99.90;;;;;;5009056;28;20088;-65
2023/05/27 07:26:20;;;;;;;0.00;0.00;;;13.00;99.90;;;;;;5005770;28;20121;-65
2023/05/27 07:28:45;;;;;;;0.10;0.10;;;13.10;99.90;;;;;;5001900;28;20058;-66
2023/05/27 07:31:11;;;;;;;11.60;1.00;;;13.20;99.90;;;;;;4999001;28;20209;-65
2023/05/27 07:33:37;;;;;;;3.20;0.98;;;13.10;99.90;;;;;;5013521;28;20149;-65
2023/05/27 07:36:02;;;;;;;0.00;0.00;;;13.10;99.90;;;;;;4997975;28;20041;-65
2023/05/27 07:38:28;;;;;;;0.10;0.10;;;13.20;99.90;;;;;;5012421;28;20038;-65
2023/05/27 07:40:54;;;;;;;0.10;0.10;;;13.30;99.90;;;;;;5044607;28;20601;-65
2023/05/27 07:43:19;;;;;;;0.28;0.28;;;13.30;99.90;;;;;;5002776;28;20397;-65
2023/05/27 07:45:45;;;;;;;0.00;0.00;;;13.40;99.90;;;;;;5011289;28;20041;-65
2023/05/27 07:48:10;;;;;;;0.10;0.10;;;13.50;99.90;;;;;;5011597;28;20065;-66
2023/05/27 07:50:36;;;;;;;0.10;0.10;;;13.40;99.90;;;;;;5011897;28;20045;-65
2023/05/27 07:53:01;;;;;;;0.10;0.10;;;13.50;99.90;;;;;;5004675;28;20065;-65
2023/05/27 07:55:27;;;;;;;0.00;0.00;;;13.70;99.90;;;;;;5008871;28;20045;-65
2023/05/27 07:57:55;;;;;;;0.10;0.10;;;13.80;99.90;;;;;;5012395;28;20485;-65
2023/05/27 08:00:21;;;;;;;2.53;1.15;;;13.80;99.90;;;;;;5010822;28;20382;-65
2023/05/27 08:02:46;;;;;;;0.28;0.28;;;13.80;99.90;;;;;;5006572;28;20045;-65
2023/05/27 08:05:12;;;;;;;0.30;0.30;;;13.80;99.90;;;;;;5006683;28;20482;-65
2023/05/27 08:07:37;;;;;;;0.10;0.10;;;13.80;99.90;;;;;;5007601;28;20468;-65
2023/05/27 08:10:04;;;;;;;0.30;0.30;;;13.90;99.90;;;;;;5004199;28;20047;-65
2023/05/27 08:12:29;;;;;;;6.97;1.85;;;14.00;99.90;;;;;;5010152;28;20144;-65
2023/05/27 08:14:55;;;;;;;0.50;0.50;;;14.20;99.90;;;;;;5006740;28;20113;-65
2023/05/27 08:17:21;;;;;;;0.00;0.00;;;14.30;99.90;;;;;;5005077;28;20371;-65
2023/05/27 08:19:46;;;;;;;0.10;0.10;;;14.40;99.90;;;;;;5010053;28;20061;-65
2023/05/27 08:22:12;;;;;;;0.40;0.40;;;14.50;99.90;;;;;;5004222;28;20459;-65
2023/05/27 08:24:38;;;;;;;0.08;0.08;;;14.40;99.90;;;;;;4998455;28;20050;-65
2023/05/27 08:27:05;;;;;;;0.25;0.25;;;14.40;99.90;;;;;;5008776;28;20125;-66
2023/05/27 08:29:32;;;;;;;1.88;0.35;;;14.40;99.90;;;;;;5007378;28;20096;-65
2023/05/27 08:31:58;;;;;;;0.13;0.13;;;14.40;99.90;;;;;;4999932;28;20111;-65
2023/05/27 08:34:25;;;;;;;0.63;0.63;;;14.50;99.90;;;;;;5001659;28;20497;-65
2023/05/27 08:36:51;;;;;;;0.13;0.13;;;14.50;99.90;;;;;;5011105;28;20061;-66
2023/05/27 08:39:17;;;;;;;0.15;0.15;;;14.60;99.90;;;;;;4999629;28;20038;-65
2023/05/27 08:41:42;;;;;;;0.20;0.20;;;14.60;99.90;;;;;;4994934;28;20046;-65
2023/05/27 08:44:08;;;;;;;0.00;0.00;;;14.80;99.90;;;;;;5006623;28;20171;-65
2023/05/27 08:46:35;;;;;;;1.45;0.85;;;14.80;99.90;;;;;;4997809;28;20100;-65
2023/05/27 08:49:01;;;;;;;0.73;0.73;;;14.90;99.90;;;;;;5003987;28;20057;-65
2023/05/27 08:51:27;;;;;;;0.10;0.10;;;15.00;99.90;;;;;;5009569;28;20074;-65
2023/05/27 08:53:53;;;;;;;8.70;0.80;;;15.00;99.90;;;;;;5000947;28;20054;-65
2023/05/27 08:56:21;;;;;;;2.15;1.10;;;14.90;99.90;;;;;;5003768;28;20049;-65
2023/05/27 08:58:47;;;;;;;0.13;0.13;;;15.10;99.90;;;;;;5003085;28;20053;-65
2023/05/27 09:01:17;;;;;;;0.10;0.10;;;15.20;99.90;;;;;;5000473;28;20102;-65
2023/05/27 09:03:43;;;;;;;0.20;0.20;;;15.30;99.90;;;;;;4996375;28;20064;-65
2023/05/27 09:06:09;;;;;;;1.13;0.52;;;15.30;99.90;;;;;;5007919;28;20492;-65
2023/05/27 09:08:34;;;;;;;0.88;0.63;;;15.40;99.90;;;;;;5002000;28;20044;-65
2023/05/27 09:11:01;;;;;;;0.55;0.55;;;15.40;99.90;;;;;;5006181;28;20045;-65
2023/05/27 09:13:28;;;;;;;2.95;1.88;;;15.40;99.90;;;;;;5003277;28;20042;-65
2023/05/27 09:16:00;;;;;;;0.47;0.43;;;15.20;99.90;;;;;;5000535;28;20117;-65
2023/05/27 09:18:28;;;;;;;1.02;0.65;;;15.40;99.90;;;;;;5001065;28;20041;-65
2023/05/27 09:20:55;;;;;;;0.00;0.00;;;15.40;99.90;;;;;;5004602;28;20479;-65
2023/05/27 09:23:21;;;;;;;0.10;0.10;;;15.60;99.90;;;;;;4999635;28;20584;-65
2023/05/27 09:25:47;;;;;;;0.13;0.13;;;15.70;99.90;;;;;;5007767;28;20050;-65
2023/05/27 09:28:23;;;;;;;0.60;0.52;;;15.90;99.90;;;;;;5003823;28;20456;-65
2023/05/27 09:31:04;;;;;;;0.55;0.52;;;16.10;99.90;;;;;;5002445;28;20073;-65
2023/05/27 09:33:32;;;;;;;0.08;0.08;;;16.00;99.90;;;;;;5002650;28;20394;-65
2023/05/27 09:36:02;;;;;;;0.50;0.20;;;16.30;99.90;;;;;;5002524;28;20061;-65
2023/05/27 09:38:32;;;;;;;0.10;0.10;;;16.50;99.90;;;;;;5010667;28;20042;-65
2023/05/27 09:40:58;;;;;;;0.20;0.20;;;16.70;99.90;;;;;;5035250;28;20050;-66
2023/05/27 09:43:26;;;;;;;0.68;0.50;;;16.90;99.90;;;;;;5000930;28;20049;-65
2023/05/27 09:46:02;;;;;;;0.20;0.20;;;17.00;99.90;;;;;;5002622;28;20037;-65
2023/05/27 09:48:31;;;;;;;0.10;0.10;;;17.10;99.90;;;;;;5010673;28;20037;-65
2023/05/27 09:50:57;;;;;;;0.40;0.40;;;17.40;99.90;;;;;;5030582;28;20133;-65
2023/05/27 09:53:24;;;;;;;0.10;0.10;;;17.70;99.90;;;;;;5001596;28;20066;-66
2023/05/27 09:55:52;;;;;;;1.75;0.60;;;17.90;99.90;;;;;;4996220;28;20126;-65
2023/05/27 09:58:18;;;;;;;0.10;0.10;;;17.90;99.90;;;;;;5006753;28;20046;-65
2023/05/27 10:00:45;;;;;;;0.00;0.00;;;18.00;99.90;;;;;;4999169;28;20129;-65
2023/05/27 10:03:12;;;;;;;0.00;0.00;;;18.20;99.90;;;;;;5008636;28;20042;-65
2023/05/27 10:05:38;;;;;;;1.38;0.43;;;18.40;99.90;;;;;;5005292;28;20457;-66
2023/05/27 10:08:05;;;;;;;0.40;0.40;;;18.70;99.90;;;;;;5002100;28;20140;-66
2023/05/27 10:10:32;;;;;;;0.08;0.08;;;18.90;99.90;;;;;;5011825;28;20045;-65
2023/05/27 10:12:59;;;;;;;8.25;1.17;;;18.90;99.90;;;;;;5007092;28;20062;-66
2023/05/27 10:15:31;;;;;;;0.00;0.00;;;18.90;99.90;;;;;;5018955;28;20077;-65
2023/05/27 10:18:02;;;;;;;0.10;0.10;;;19.10;99.90;;;;;;5019135;28;20070;-66
2023/05/27 10:20:42;;;;;;;0.00;0.00;;;19.20;99.90;;;;;;5006775;28;20054;-65
2023/05/27 10:23:15;;;;;;;0.25;0.25;;;19.30;99.90;;;;;;5012548;28;20401;-65
2023/05/27 10:25:47;;;;;;;0.45;0.40;;;19.30;99.90;;;;;;5009854;28;20077;-66
2023/05/27 10:28:31;;;;;;;0.28;0.28;;;19.30;99.90;;;;;;5003444;28;20096;-66
2023/05/27 10:31:11;;;;;;;1.10;0.52;;;19.40;99.90;;;;;;5006605;28;20038;-66
2023/05/27 10:33:38;;;;;;;0.50;0.50;;;19.70;99.90;;;;;;5004049;28;20050;-66
2023/05/27 10:36:08;;;;;;;1.65;0.57;;;19.70;99.90;;;;;;5008881;28;20045;-66
2023/05/27 10:38:35;;;;;;;2.55;0.20;;;19.60;99.90;;;;;;5005990;28;20482;-65
2023/05/27 10:41:02;;;;;;;4.65;0.82;;;19.70;99.90;;;;;;4993900;28;20057;-66
2023/05/27 10:43:33;;;;;;;3.20;1.85;;;19.50;99.90;;;;;;5008500;28;20108;-66
2023/05/27 10:46:03;;;;;;;0.30;0.30;;;19.70;99.90;;;;;;5001043;28;20073;-66
2023/05/27 10:48:28;;;;;;;0.20;0.20;;;19.60;99.90;;;;;;5025888;28;20057;-66
2023/05/27 10:50:57;;;;;;;0.47;0.47;;;19.80;99.90;;;;;;5008417;28;20033;-66
2023/05/27 10:53:26;;;;;;;0.15;0.15;;;19.90;99.90;;;;;;5004532;28;20557;-66
2023/05/27 10:55:51;;;;;;;3.50;1.52;;;19.80;99.90;;;;;;5010032;28;20042;-66
2023/05/27 10:58:18;;;;;;;0.10;0.10;;;19.90;99.90;;;;;;4998266;28;20715;-65
2023/05/27 11:00:46;;;;;;;0.30;0.30;;;20.20;99.90;;;;;;5008347;28;20063;-65
2023/05/27 11:03:23;;;;;;;0.75;0.55;;;20.40;99.90;;;;;;5006108;28;20050;-66
2023/05/27 11:06:06;;;;;;;0.08;0.08;;;20.50;99.90;;;;;;5004719;28;20082;-66
2023/05/27 11:08:33;;;;;;;0.25;0.25;;;20.50;99.90;;;;;;5001469;28;20052;-65
2023/05/27 11:11:10;;;;;;;1.48;1.05;;;20.50;99.90;;;;;;5007240;28;20112;-66
2023/05/27 11:13:42;;;;;;;0.43;0.43;;;20.80;99.90;;;;;;5008789;28;20125;-66
2023/05/27 11:16:07;;;;;;;0.03;0.03;;;20.90;99.90;;;;;;5000355;28;20061;-66
2023/05/27 11:18:46;;;;;;;0.98;0.70;;;21.00;99.90;;;;;;5006116;28;20039;-66
2023/05/27 11:21:15;;;;;;;0.20;0.20;;;21.10;99.90;;;;;;5003103;28;20406;-65
2023/05/27 11:23:48;;;;;;;4.50;1.25;;;20.90;99.90;;;;;;5004555;28;20081;-65
2023/05/27 11:26:22;;;;;;;0.52;0.47;;;21.20;99.90;;;;;;5002161;28;20222;-65
2023/05/27 11:28:50;;;;;;;;;;;21.30;99.90;;;;;;5001661;28;20057;-66
2023/05/27 11:31:17;;;;;;;2.05;0.45;;;21.30;99.90;;;;;;5002651;28;20059;-66
2023/05/27 11:33:44;;;;;;;0.20;0.20;;;21.50;99.90;;;;;;5009652;28;20058;-66
2023/05/27 11:36:14;;;;;;;0.40;0.40;;;21.50;99.90;;;;;;5006745;28;20038;-66
2023/05/27 11:38:57;;;;;;;0.03;0.03;;;21.40;99.90;;;;;;5009118;28;20053;-66
2023/05/27 11:41:28;;;;;;;0.25;0.25;;;21.30;99.90;;;;;;5029398;28;20145;-66
2023/05/27 11:44:03;;;;;;;2.55;0.52;;;21.70;99.90;;;;;;4996981;28;20104;-66
2023/05/27 11:46:35;;;;;;;0.10;0.10;;;21.80;99.90;;;;;;5008811;28;20037;-66
2023/05/27 11:49:04;;;;;;;0.00;0.00;;;21.90;99.90;;;;;;5003868;28;20061;-66
2023/05/27 11:51:31;;;;;;;0.13;0.13;;;22.00;99.90;;;;;;5009244;28;20033;-65
2023/05/27 11:54:00;;;;;;;0.30;0.30;;;22.10;99.90;;;;;;5010111;28;20052;-65
2023/05/27 11:56:28;;;;;;;0.50;0.25;;;22.10;99.90;;;;;;5002407;28;20037;-65
2023/05/27 11:58:54;;;;;;;0.75;0.63;;;22.30;99.90;;;;;;5007801;28;20405;-66
2023/05/27 12:01:20;;;;;;;0.77;0.77;;;22.50;99.90;;;;;;5003399;28;20057;-65
2023/05/27 12:03:45;;;;;;;2.55;0.63;;;22.30;99.90;;;;;;5006430;28;20052;-66
2023/05/27 12:06:11;;;;;;;3.20;0.88;;;22.30;99.90;;;;;;5009914;28;20633;-65
2023/05/27 12:08:38;;;;;;;0.00;0.00;;;22.70;99.90;;;;;;5003674;28;20052;-65
2023/05/27 12:11:04;;;;;;;0.52;0.38;;;22.70;99.90;;;;;;5006305;28;20407;-65
2023/05/27 12:13:31;;;;;;;0.17;0.17;;;22.70;99.90;;;;;;5006941;28;20046;-66
2023/05/27 12:15:58;;;;;;;0.52;0.52;;;22.70;99.90;;;;;;4994993;28;20050;-66
2023/05/27 12:18:23;;;;;;;1.33;1.23;;;23.10;99.90;;;;;;5004071;28;20034;-66
2023/05/27 12:20:50;;;;;;;0.95;0.50;;;23.30;99.80;;;;;;5007059;28;20060;-66
2023/05/27 12:23:15;;;;;;;0.20;0.20;;;23.00;99.90;;;;;;5004344;28;20777;-65
2023/05/27 12:25:41;;;;;;;0.95;0.75;;;23.30;99.90;;;;;;5003290;28;20093;-66
2023/05/27 12:28:08;;;;;;;0.50;0.50;;;23.50;99.90;;;;;;5001055;28;20058;-66
2023/05/27 12:30:35;;;;;;;0.43;0.40;;;23.60;99.90;;;;;;4995781;28;20188;-65
2023/05/27 12:33:01;;;;;;;23.60;0.57;;;23.80;99.20;;;;;;5006149;28;20053;-66
2023/05/27 12:35:27;;;;;;;1.73;1.40;;;23.80;99.10;;;;;;5004707;28;20431;-65
2023/05/27 12:37:53;;;;;;;3.95;2.08;;;23.80;98.70;;;;;;5008914;28;20124;-65
2023/05/27 12:40:18;;;;;;;0.65;0.52;;;24.00;99.00;;;;;;4996755;28;20034;-65
2023/05/27 12:42:44;;;;;;;0.43;0.43;;;23.90;98.70;;;;;;5008935;28;20575;-65
2023/05/27 12:45:10;;;;;;;0.10;0.10;;;24.10;99.90;;;;;;5005107;28;20040;-65
2023/05/27 12:47:37;;;;;;;0.00;0.00;;;24.20;99.90;;;;;;5006134;28;20128;-65
2023/05/27 12:50:04;;;;;;;1.27;0.50;;;24.10;99.50;;;;;;4998824;28;20405;-66
2023/05/27 12:52:29;;;;;;;0.28;0.20;;;24.00;99.70;;;;;;5001827;28;20038;-67